Terminal Aerodrome Forecast
Issued by NWS State College, PA

Home | Current Version | Previous Version | Text Only | Print | Product List | Glossary On
Versions: 1 2 3 4 5 6 7 8 9 10 11 12 13 14 15 16 17 18 19 20 21 22 23 24 25 26 27 28 29 30 31 32 33 34 35 36 37 38 39 40
000
FTUS41 KCTP 251615 AAH
TAFIPT
TAF AMD
KIPT 251615Z 2516/2612 13009G17KT P6SM VCSH BKN015 OVC030
      WS015/24040KT
      TEMPO 2516/2517 28009KT
     FM251800 23009KT P6SM SCT030 OVC100
      TEMPO 2518/2520 BKN030
     FM252300 27005KT P6SM SKC=

USA.gov is the U.S. government's official web portal to all federal, state and local government web resources and services.